createdAt,value
2018-08-25T00:02:15.867Z,81.20
2018-08-25T00:04:44.523Z,80.90
2018-08-25T00:07:13.170Z,80.00
2018-08-25T00:09:41.872Z,80.20
2018-08-25T00:12:10.535Z,80.80
2018-08-25T00:14:39.156Z,80.30
2018-08-25T00:17:07.863Z,80.50
2018-08-25T00:19:36.544Z,80.60
2018-08-25T00:22:05.273Z,80.40
2018-08-25T00:24:33.895Z,80.20
2018-08-25T00:27:02.796Z,79.20
2018-08-25T00:29:31.423Z,79.70
2018-08-25T00:32:00.035Z,78.40
2018-08-25T00:34:28.663Z,79.20
2018-08-25T00:36:57.344Z,79.40
2018-08-25T00:39:25.993Z,79.40
2018-08-25T00:41:54.856Z,79.10
2018-08-25T00:44:23.649Z,80.20
2018-08-25T00:46:52.370Z,78.70
2018-08-25T00:49:21.067Z,78.30
2018-08-25T00:51:49.729Z,78.80
2018-08-25T00:54:18.416Z,78.20
2018-08-25T00:56:47.119Z,78.70
2018-08-25T00:59:15.809Z,78.60
2018-08-25T01:01:44.590Z,79.00
2018-08-25T01:04:13.236Z,78.90
2018-08-25T01:06:41.991Z,78.60
2018-08-25T01:09:10.941Z,78.40
2018-08-25T01:11:39.569Z,78.50
2018-08-25T01:14:08.288Z,78.90
2018-08-25T01:16:37.001Z,78.70
2018-08-25T01:19:06.227Z,79.10
2018-08-25T01:21:34.894Z,78.90
2018-08-25T01:24:03.668Z,79.50
2018-08-25T01:26:32.386Z,79.50
2018-08-25T01:29:01.157Z,79.10
2018-08-25T01:31:30.134Z,79.50
2018-08-25T01:34:00.205Z,80.00
2018-08-25T01:36:29.981Z,80.30
2018-08-25T01:38:58.618Z,80.00
2018-08-25T01:41:28.096Z,79.80
2018-08-25T01:43:56.912Z,79.40
2018-08-25T01:46:25.579Z,79.80
2018-08-25T01:48:54.219Z,79.70
2018-08-25T01:51:22.897Z,79.90
2018-08-25T01:53:51.557Z,80.00
2018-08-25T01:56:20.218Z,79.50
2018-08-25T01:58:49.051Z,79.60
2018-08-25T02:01:17.667Z,79.20
2018-08-25T02:03:46.302Z,79.40
2018-08-25T02:06:15.035Z,79.50
2018-08-25T02:08:43.711Z,80.10
2018-08-25T02:11:12.358Z,80.50
2018-08-25T02:13:41.838Z,79.90
2018-08-25T02:16:10.551Z,81.10
2018-08-25T02:18:39.152Z,81.20
2018-08-25T02:21:07.760Z,80.80
2018-08-25T02:23:36.468Z,81.50
2018-08-25T02:26:05.102Z,81.70
2018-08-25T02:28:33.816Z,81.40
2018-08-25T02:31:02.406Z,82.50
2018-08-25T02:33:31.019Z,82.20
2018-08-25T02:35:59.749Z,81.90
2018-08-25T02:38:28.521Z,81.70
2018-08-25T02:40:57.156Z,82.20
2018-08-25T02:43:26.011Z,82.30
2018-08-25T02:45:54.664Z,82.40
2018-08-25T02:48:23.302Z,82.40
2018-08-25T02:50:52.084Z,82.50
2018-08-25T02:53:20.735Z,82.30
2018-08-25T02:55:49.332Z,82.00
2018-08-25T02:58:18.109Z,81.70
2018-08-25T03:00:46.784Z,81.90
2018-08-25T03:03:15.404Z,82.00
2018-08-25T03:05:44.010Z,82.10
2018-08-25T03:08:12.594Z,82.00
2018-08-25T03:10:41.354Z,82.40
2018-08-25T03:13:11.969Z,82.20
2018-08-25T03:15:41.651Z,82.50
2018-08-25T03:18:10.239Z,81.80
2018-08-25T03:20:39.923Z,81.80
2018-08-25T03:23:08.507Z,81.80
2018-08-25T03:25:37.146Z,82.30
2018-08-25T03:28:05.777Z,82.20
2018-08-25T03:30:34.408Z,81.70
2018-08-25T03:33:03.182Z,81.70
2018-08-25T03:35:31.754Z,81.20
2018-08-25T03:38:00.358Z,81.90
2018-08-25T03:40:29.029Z,81.00
2018-08-25T03:42:58.538Z,80.20
2018-08-25T03:45:27.094Z,80.20
2018-08-25T03:47:55.727Z,78.80
2018-08-25T03:50:24.365Z,78.70
2018-08-25T03:52:52.970Z,79.60
2018-08-25T03:55:21.822Z,79.30
2018-08-25T03:57:51.407Z,79.20
2018-08-25T04:00:19.984Z,79.40
2018-08-25T04:02:48.820Z,78.50
2018-08-25T04:05:17.470Z,79.10
2018-08-25T04:07:47.064Z,78.80
2018-08-25T04:10:16.624Z,79.30
2018-08-25T04:12:47.544Z,78.60
2018-08-25T04:15:16.191Z,79.40
2018-08-25T04:20:23.290Z,79.60
2018-08-25T04:22:51.937Z,79.50
2018-08-25T04:25:20.635Z,79.60
2018-08-25T04:27:49.391Z,79.80
2018-08-25T04:30:17.990Z,79.10
2018-08-25T04:32:47.707Z,79.20
2018-08-25T04:35:16.374Z,78.90
2018-08-25T04:37:45.283Z,78.80
2018-08-25T04:40:15.916Z,78.70
2018-08-25T04:42:44.572Z,80.00
2018-08-25T04:45:13.242Z,79.00
2018-08-25T04:47:42.052Z,78.90
2018-08-25T04:50:10.688Z,79.40
2018-08-25T04:52:40.275Z,79.30
2018-08-25T04:55:08.898Z,78.60
2018-08-25T04:57:37.774Z,78.90
2018-08-25T05:00:06.564Z,78.60
2018-08-25T05:02:35.186Z,79.10
2018-08-25T05:05:04.872Z,79.20
2018-08-25T05:07:33.599Z,79.00
2018-08-25T05:10:03.326Z,78.90
2018-08-25T05:12:31.975Z,78.70
2018-08-25T05:15:00.578Z,78.90
2018-08-25T05:17:30.388Z,79.20
2018-08-25T05:19:59.001Z,78.60
2018-08-25T05:22:28.555Z,78.40
2018-08-25T05:24:58.209Z,78.50
2018-08-25T05:27:28.965Z,78.60
2018-08-25T05:29:58.585Z,78.20
2018-08-25T05:32:27.222Z,77.60
2018-08-25T05:34:55.845Z,78.30
2018-08-25T05:37:25.493Z,78.60
2018-08-25T05:39:55.343Z,78.10
2018-08-25T05:42:24.031Z,77.80
2018-08-25T05:44:52.664Z,78.30
2018-08-25T05:47:21.394Z,78.30
2018-08-25T05:49:50.000Z,78.10
2018-08-25T05:52:18.658Z,78.10
2018-08-25T05:54:48.354Z,78.00
2018-08-25T05:57:18.970Z,77.40
2018-08-25T05:59:47.713Z,78.40
2018-08-25T06:02:16.389Z,77.50
2018-08-25T06:04:46.210Z,76.80
2018-08-25T06:07:15.867Z,77.30
2018-08-25T06:09:45.474Z,77.40
2018-08-25T06:12:14.116Z,76.20
2018-08-25T06:14:42.728Z,75.80
2018-08-25T06:17:11.331Z,76.50
2018-08-25T06:19:39.944Z,76.10
2018-08-25T06:22:09.593Z,76.40
2018-08-25T06:24:38.203Z,76.10
2018-08-25T06:27:06.839Z,76.30
2018-08-25T06:29:35.536Z,75.70
2018-08-25T06:32:05.191Z,75.90
2018-08-25T06:34:33.877Z,75.60
2018-08-25T06:37:02.508Z,75.80
2018-08-25T06:39:31.136Z,74.80
2018-08-25T06:41:59.948Z,75.00
2018-08-25T06:44:28.571Z,74.80
2018-08-25T06:46:57.223Z,74.70
2018-08-25T06:49:26.094Z,74.10
2018-08-25T06:51:54.771Z,73.10
2018-08-25T06:54:24.358Z,73.40
2018-08-25T06:56:53.047Z,73.30
2018-08-25T06:59:21.761Z,72.90
2018-08-25T07:01:50.319Z,73.40
2018-08-25T07:04:18.935Z,73.10
2018-08-25T07:06:47.644Z,72.90
2018-08-25T07:09:16.372Z,72.90
2018-08-25T07:11:44.991Z,71.90
2018-08-25T07:14:13.568Z,71.60
2018-08-25T07:16:42.167Z,71.50
2018-08-25T07:19:10.809Z,70.80
2018-08-25T07:21:39.533Z,71.40
2018-08-25T07:24:08.321Z,71.10
2018-08-25T07:26:37.071Z,71.10
2018-08-25T07:29:05.891Z,71.30
2018-08-25T07:31:34.502Z,71.40
2018-08-25T07:34:03.198Z,71.80
2018-08-25T07:36:31.985Z,70.90
2018-08-25T07:39:00.635Z,70.30
2018-08-25T07:41:29.274Z,70.40
2018-08-25T07:43:57.960Z,70.00
2018-08-25T07:46:26.977Z,69.80
2018-08-25T07:48:55.604Z,69.40
2018-08-25T07:51:24.428Z,68.60
2018-08-25T07:53:53.133Z,67.20
2018-08-25T07:56:21.734Z,68.40
2018-08-25T07:58:50.357Z,67.60
2018-08-25T08:01:19.287Z,65.90
2018-08-25T08:03:47.917Z,66.40
2018-08-25T08:06:16.542Z,66.30
2018-08-25T08:08:45.231Z,65.80
2018-08-25T08:11:13.816Z,65.20
2018-08-25T08:13:42.473Z,63.90
2018-08-25T08:16:11.524Z,65.30
2018-08-25T08:18:40.126Z,65.40
2018-08-25T08:21:08.766Z,65.90
2018-08-25T08:23:37.435Z,65.90
2018-08-25T08:26:06.229Z,66.90
2018-08-25T08:28:34.799Z,66.10
2018-08-25T08:31:03.884Z,65.90
2018-08-25T08:33:32.546Z,66.20
2018-08-25T08:36:01.170Z,65.30
2018-08-25T08:38:32.135Z,64.80
2018-08-25T08:41:00.816Z,64.50
2018-08-25T08:43:29.402Z,64.00
2018-08-25T08:45:58.400Z,63.20
2018-08-25T08:48:27.014Z,62.80
2018-08-25T08:50:55.618Z,62.60
2018-08-25T08:53:24.452Z,62.50
2018-08-25T08:55:53.080Z,62.10
2018-08-25T08:58:21.760Z,62.40
2018-08-25T09:00:50.362Z,61.90
2018-08-25T09:03:19.048Z,61.10
2018-08-25T09:05:47.699Z,61.30
2018-08-25T09:08:16.773Z,60.60
2018-08-25T09:10:45.403Z,59.50
2018-08-25T09:13:14.095Z,59.40
2018-08-25T09:15:42.832Z,58.80
2018-08-25T09:18:15.444Z,57.50
2018-08-25T09:20:44.067Z,57.30
2018-08-25T09:23:12.643Z,56.20
2018-08-25T09:25:41.312Z,55.70
2018-08-25T09:28:09.938Z,55.60
2018-08-25T09:30:38.554Z,54.90
2018-08-25T09:33:07.241Z,54.40
2018-08-25T09:35:36.239Z,54.50
2018-08-25T09:38:05.154Z,54.00
2018-08-25T09:40:33.834Z,52.70
2018-08-25T09:43:03.505Z,50.90
2018-08-25T09:45:33.116Z,51.70
2018-08-25T09:48:01.716Z,51.00
2018-08-25T09:50:30.530Z,50.00
2018-08-25T09:52:59.187Z,49.80
2018-08-25T09:55:27.896Z,50.20
2018-08-25T09:57:56.647Z,50.40
2018-08-25T10:00:25.255Z,50.70
2018-08-25T10:02:53.851Z,50.90
2018-08-25T10:05:22.928Z,51.70
2018-08-25T10:07:51.761Z,52.00
2018-08-25T10:10:20.403Z,52.20
2018-08-25T10:12:49.023Z,52.20
2018-08-25T10:15:17.798Z,51.60
2018-08-25T10:17:46.433Z,51.00
2018-08-25T10:20:15.079Z,51.10
2018-08-25T10:22:43.678Z,50.90
2018-08-25T10:25:12.322Z,51.10
2018-08-25T10:27:42.204Z,51.00
2018-08-25T10:30:11.310Z,51.20
2018-08-25T10:32:40.232Z,50.40
2018-08-25T10:35:08.937Z,50.80
2018-08-25T10:37:37.687Z,51.10
2018-08-25T10:40:06.360Z,51.20
2018-08-25T10:42:35.281Z,52.20
2018-08-25T10:45:03.980Z,51.40
2018-08-25T10:47:32.638Z,51.00
2018-08-25T10:50:01.252Z,51.00
2018-08-25T10:52:31.012Z,51.10
2018-08-25T10:55:00.656Z,51.90
2018-08-25T10:57:29.691Z,52.10
2018-08-25T10:59:58.327Z,52.30
2018-08-25T11:02:28.068Z,52.60
2018-08-25T11:04:57.046Z,53.00
2018-08-25T11:07:25.755Z,52.70
2018-08-25T11:09:54.864Z,53.10
2018-08-25T11:12:24.564Z,52.40
2018-08-25T11:14:53.197Z,52.60
2018-08-25T11:17:21.811Z,53.00
2018-08-25T11:19:50.513Z,52.50
2018-08-25T11:22:19.195Z,52.60
2018-08-25T11:24:47.842Z,51.50
2018-08-25T11:27:17.550Z,53.00
2018-08-25T11:29:46.163Z,53.10
2018-08-25T11:32:15.775Z,52.60
2018-08-25T11:34:44.471Z,51.10
2018-08-25T11:37:13.334Z,51.70
2018-08-25T11:39:41.913Z,51.90
2018-08-25T11:42:10.620Z,52.50
2018-08-25T11:44:40.204Z,52.60
2018-08-25T11:47:14.118Z,53.10
2018-08-25T11:49:42.952Z,53.10
2018-08-25T11:52:11.577Z,53.00
2018-08-25T11:54:40.512Z,52.90
2018-08-25T11:57:09.168Z,52.60
2018-08-25T11:59:37.834Z,52.80
2018-08-25T12:02:06.860Z,51.40
2018-08-25T12:04:35.626Z,51.30
2018-08-25T12:07:04.284Z,51.60
2018-08-25T12:09:32.985Z,51.80
2018-08-25T12:12:03.539Z,51.50
2018-08-25T12:14:33.195Z,50.60
2018-08-25T12:17:01.832Z,50.90
2018-08-25T12:19:30.441Z,51.60
2018-08-25T12:21:59.164Z,53.30
2018-08-25T12:24:28.794Z,51.80
2018-08-25T12:27:01.259Z,50.40
2018-08-25T12:29:30.027Z,48.80
2018-08-25T12:31:59.169Z,48.60
2018-08-25T12:34:29.091Z,49.40
2018-08-25T12:36:57.703Z,54.10
2018-08-25T12:39:26.338Z,56.40
2018-08-25T12:41:55.044Z,57.90
2018-08-25T12:44:23.720Z,57.60
2018-08-25T12:46:52.374Z,57.60
2018-08-25T12:49:21.055Z,59.10
2018-08-25T12:51:49.690Z,59.40
2018-08-25T12:54:18.312Z,60.10
2018-08-25T12:56:47.303Z,61.50
2018-08-25T12:59:16.007Z,61.90
2018-08-25T13:01:44.747Z,63.40
2018-08-25T13:04:13.301Z,66.00
2018-08-25T13:06:41.896Z,66.70
2018-08-25T13:09:11.707Z,68.30
2018-08-25T13:11:40.630Z,67.60
2018-08-25T13:14:09.576Z,70.40
2018-08-25T13:16:38.166Z,69.70
2018-08-25T13:19:07.260Z,72.30
2018-08-25T13:21:35.882Z,73.80
2018-08-25T13:24:04.539Z,74.20
2018-08-25T13:26:33.433Z,74.60
2018-08-25T13:29:02.203Z,75.10
2018-08-25T13:31:30.809Z,74.90
2018-08-25T13:34:00.708Z,74.60
2018-08-25T13:36:31.736Z,74.20
2018-08-25T13:39:00.623Z,75.40
2018-08-25T13:41:29.288Z,74.40
2018-08-25T13:43:57.869Z,74.60
2018-08-25T13:46:26.543Z,74.80
2018-08-25T13:48:55.198Z,75.40
2018-08-25T13:51:24.812Z,77.10
2018-08-25T13:53:53.479Z,77.10
2018-08-25T13:56:22.138Z,78.70
2018-08-25T13:58:50.818Z,78.20
2018-08-25T14:01:19.503Z,79.10
2018-08-25T14:03:48.208Z,79.80
2018-08-25T14:06:16.832Z,80.10
2018-08-25T14:08:45.698Z,81.50
2018-08-25T14:11:14.401Z,81.90
2018-08-25T14:13:43.098Z,82.30
2018-08-25T14:16:12.196Z,82.50
2018-08-25T14:18:40.909Z,81.20
2018-08-25T14:21:09.704Z,82.30
2018-08-25T14:23:38.321Z,81.40
2018-08-25T14:26:06.995Z,81.90
2018-08-25T14:28:36.779Z,83.40
2018-08-25T14:31:06.423Z,83.30
2018-08-25T14:33:35.085Z,83.40
2018-08-25T14:36:03.928Z,83.90
2018-08-25T14:38:32.573Z,83.30
2018-08-25T14:41:03.204Z,83.40
2018-08-25T14:43:31.835Z,83.40
2018-08-25T14:46:00.527Z,82.90
2018-08-25T14:48:29.247Z,83.40
2018-08-25T14:50:57.829Z,83.90
2018-08-25T14:53:26.497Z,84.50
2018-08-25T14:55:55.153Z,82.60
2018-08-25T14:58:23.759Z,83.10
2018-08-25T15:00:52.593Z,84.90
2018-08-25T15:03:21.172Z,84.70
2018-08-25T15:05:49.781Z,83.90
2018-08-25T15:08:18.438Z,83.50
2018-08-25T15:10:47.171Z,84.30
2018-08-25T15:13:15.841Z,84.70
2018-08-25T15:15:44.684Z,84.60
2018-08-25T15:18:13.315Z,84.60
2018-08-25T15:20:42.020Z,83.30
2018-08-25T15:23:10.760Z,83.30
2018-08-25T15:25:39.416Z,83.20
2018-08-25T15:28:08.070Z,84.10
2018-08-25T15:30:36.667Z,83.90
2018-08-25T15:33:05.443Z,84.60
2018-08-25T15:35:34.038Z,84.10
2018-08-25T15:38:03.296Z,83.40
2018-08-25T15:40:31.980Z,83.20
2018-08-25T15:43:00.676Z,84.10
2018-08-25T15:45:29.473Z,84.00
2018-08-25T15:47:58.141Z,85.20
2018-08-25T15:50:26.727Z,85.60
2018-08-25T15:52:56.048Z,85.50
2018-08-25T15:55:24.898Z,85.70
2018-08-25T15:57:53.665Z,84.80
2018-08-25T16:00:22.356Z,84.60
2018-08-25T16:02:51.066Z,84.90
2018-08-25T16:05:19.780Z,84.50
2018-08-25T16:07:48.450Z,84.00
2018-08-25T16:10:17.198Z,85.30
2018-08-25T16:12:45.843Z,84.90
2018-08-25T16:15:14.476Z,84.90
2018-08-25T16:17:43.127Z,84.50
2018-08-25T16:20:11.763Z,84.40
2018-08-25T16:22:40.355Z,84.80
2018-08-25T16:25:09.128Z,85.40
2018-08-25T16:27:37.850Z,85.00
2018-08-25T16:30:06.649Z,85.20
2018-08-25T16:32:35.287Z,84.90
2018-08-25T16:35:04.979Z,83.80
2018-08-25T16:37:34.072Z,84.70
2018-08-25T16:40:03.148Z,85.50
2018-08-25T16:42:31.783Z,85.10
2018-08-25T16:45:00.435Z,84.80
2018-08-25T16:47:29.156Z,85.80
2018-08-25T16:49:57.757Z,85.40
2018-08-25T16:52:26.491Z,85.80
2018-08-25T16:54:55.140Z,85.50
2018-08-25T16:57:23.991Z,85.90
2018-08-25T16:59:52.614Z,85.70
2018-08-25T17:02:21.263Z,86.10
2018-08-25T17:04:50.091Z,86.90
2018-08-25T17:07:18.906Z,87.40
2018-08-25T17:09:47.577Z,87.10
2018-08-25T17:12:16.303Z,86.70
2018-08-25T17:14:45.067Z,86.90
2018-08-25T17:17:13.724Z,87.20
2018-08-25T17:19:43.399Z,87.40
2018-08-25T17:22:13.032Z,87.30
2018-08-25T17:24:41.845Z,87.40
2018-08-25T17:27:10.527Z,87.80
2018-08-25T17:29:39.189Z,87.80
2018-08-25T17:32:07.827Z,87.90
2018-08-25T17:34:36.440Z,88.00
2018-08-25T17:37:05.303Z,88.60
2018-08-25T17:39:35.992Z,89.00
2018-08-25T17:42:04.734Z,88.90
2018-08-25T17:44:33.417Z,88.50
2018-08-25T17:47:02.188Z,88.70
2018-08-25T17:49:30.903Z,89.40
2018-08-25T17:51:59.581Z,89.30
2018-08-25T17:54:28.245Z,89.00
2018-08-25T17:56:57.652Z,88.90
2018-08-25T17:59:26.158Z,89.60
2018-08-25T18:01:54.903Z,89.40
2018-08-25T18:04:23.576Z,89.00
2018-08-25T18:06:52.272Z,89.20
2018-08-25T18:09:20.953Z,88.90
2018-08-25T18:11:49.640Z,88.40
2018-08-25T18:14:18.477Z,88.50
2018-08-25T18:16:48.774Z,88.70
2018-08-25T18:19:17.831Z,88.90
2018-08-25T18:21:46.476Z,88.50
2018-08-25T18:24:15.392Z,88.20
2018-08-25T18:26:44.023Z,87.50
2018-08-25T18:29:12.732Z,88.00
2018-08-25T18:31:41.491Z,88.90
2018-08-25T18:34:10.698Z,88.50
2018-08-25T18:36:40.149Z,88.50
2018-08-25T18:39:11.919Z,88.70
2018-08-25T18:41:41.189Z,89.30
2018-08-25T18:44:09.835Z,88.40
2018-08-25T18:46:38.543Z,88.50
2018-08-25T18:49:07.445Z,88.60
2018-08-25T18:51:36.180Z,88.30
2018-08-25T18:54:05.122Z,88.50
2018-08-25T18:56:33.747Z,87.50
2018-08-25T18:59:03.432Z,87.40
2018-08-25T19:01:32.232Z,87.30
2018-08-25T19:04:00.939Z,87.50
2018-08-25T19:06:29.805Z,87.40
2018-08-25T19:08:58.676Z,87.50
2018-08-25T19:11:27.320Z,87.40
2018-08-25T19:13:56.093Z,87.50
2018-08-25T19:16:25.002Z,87.30
2018-08-25T19:18:53.671Z,87.40
2018-08-25T19:21:22.287Z,87.90
2018-08-25T19:23:51.115Z,88.40
2018-08-25T19:26:19.827Z,87.90
2018-08-25T19:28:48.557Z,87.90
2018-08-25T19:31:17.488Z,86.70
2018-08-25T19:33:46.256Z,86.50
2018-08-25T19:36:14.989Z,86.70
2018-08-25T19:38:43.678Z,87.40
2018-08-25T19:41:12.435Z,86.70
2018-08-25T19:43:41.334Z,87.50
2018-08-25T19:46:10.134Z,87.10
2018-08-25T19:48:39.020Z,87.50
2018-08-25T19:51:08.130Z,87.10
2018-08-25T19:53:37.058Z,87.00
2018-08-25T19:56:05.805Z,87.60
2018-08-25T19:58:35.417Z,87.30
2018-08-25T20:01:04.067Z,87.30
2018-08-25T20:03:32.653Z,87.50
2018-08-25T20:06:01.388Z,87.50
2018-08-25T20:08:30.099Z,88.20
2018-08-25T20:10:58.793Z,88.00
2018-08-25T20:13:27.415Z,87.50
2018-08-25T20:15:56.038Z,88.20
2018-08-25T20:18:24.723Z,87.70
2018-08-25T20:20:53.485Z,88.00
2018-08-25T20:23:22.026Z,88.60
2018-08-25T20:25:50.685Z,88.60
2018-08-25T20:28:19.764Z,89.30
2018-08-25T20:30:48.738Z,90.10
2018-08-25T20:33:17.311Z,90.20
2018-08-25T20:35:46.031Z,90.00
2018-08-25T20:38:14.686Z,89.70
2018-08-25T20:40:43.396Z,90.10
2018-08-25T20:43:12.030Z,90.10
2018-08-25T20:45:40.923Z,90.10
2018-08-25T20:48:09.692Z,90.30
2018-08-25T20:50:38.291Z,90.30
2018-08-25T20:53:07.003Z,90.20
2018-08-25T20:55:35.658Z,90.30
2018-08-25T20:58:04.286Z,90.40
2018-08-25T21:00:33.077Z,90.60
2018-08-25T21:03:01.748Z,90.10
2018-08-25T21:05:30.637Z,87.40
2018-08-25T21:08:00.942Z,85.50
2018-08-25T21:10:33.240Z,86.80
2018-08-25T22:12:17.918Z,90.20
2018-08-25T22:14:46.748Z,90.40
2018-08-25T22:17:15.631Z,90.60
2018-08-25T22:19:44.861Z,90.60
2018-08-25T22:22:13.715Z,90.60
2018-08-25T22:24:42.600Z,90.60
2018-08-25T22:27:11.743Z,90.50
2018-08-25T22:29:40.654Z,90.40
2018-08-25T22:32:09.627Z,90.20
2018-08-25T22:34:38.855Z,90.30
2018-08-25T22:37:07.738Z,90.40
2018-08-25T22:39:36.544Z,90.50
2018-08-25T22:42:05.454Z,90.60
2018-08-25T22:44:34.366Z,90.70
2018-08-25T22:47:03.224Z,90.70
2018-08-25T22:49:32.425Z,90.70
2018-08-25T22:52:01.286Z,90.80
2018-08-25T22:54:30.125Z,90.90
2018-08-25T22:56:59.123Z,90.60
2018-08-25T22:59:28.021Z,90.80
2018-08-25T23:01:56.854Z,90.90
2018-08-25T23:04:25.975Z,90.90
2018-08-25T23:06:54.963Z,90.80
2018-08-25T23:09:23.817Z,90.90
2018-08-25T23:11:52.861Z,91.00
2018-08-25T23:14:21.670Z,90.40
2018-08-25T23:16:50.461Z,90.90
2018-08-25T23:19:19.316Z,91.10
2018-08-25T23:21:48.143Z,91.20
2018-08-25T23:24:17.097Z,91.30
2018-08-25T23:26:46.227Z,91.30
2018-08-25T23:29:15.112Z,91.30
2018-08-25T23:31:44.002Z,91.20
2018-08-25T23:34:13.088Z,91.40
2018-08-25T23:36:41.869Z,91.30
2018-08-25T23:39:10.766Z,91.20
2018-08-25T23:41:39.566Z,91.20
2018-08-25T23:44:08.382Z,91.00
2018-08-25T23:46:37.165Z,90.90
2018-08-25T23:49:06.235Z,91.00
2018-08-25T23:51:35.046Z,90.90
2018-08-25T23:54:03.832Z,90.80
2018-08-25T23:56:33.120Z,91.00
2018-08-25T23:59:02.249Z,90.60
